Time;durP1;ratioP1;P1;durP2;ratioP2;P2;SDS_P1;SDS_P2;PMS_P1;PMS_P2;Temp;Humidity;BMP_temperature;BMP_pressure;BME280_temperature;BME280_humidity;BME280_pressure;Samples;Min_cycle;Max_cycle;Signal;HPM_P1;HPM_P2
2022/09/18 00:00:43;;;;;;;4.40;1.60;;;;;;;10.85;73.91;97445.28;5001092;28;20037;-72
2022/09/18 00:03:09;;;;;;;3.70;1.35;;;;;;;10.85;74.34;97445.28;5003700;28;20091;-73
2022/09/18 00:05:36;;;;;;;6.15;2.10;;;;;;;10.79;73.32;97439.16;5005168;28;20501;-73
2022/09/18 00:08:01;;;;;;;3.28;1.40;;;;;;;10.76;73.70;97447.22;5007600;28;20054;-69
2022/09/18 00:10:27;;;;;;;3.17;1.40;;;;;;;10.74;73.87;97441.25;4999435;28;20529;-71
2022/09/18 00:12:52;;;;;;;3.83;1.70;;;;;;;10.75;74.01;97438.19;5003140;28;20026;-70
2022/09/18 00:15:18;;;;;;;3.15;1.40;;;;;;;10.75;74.05;97446.41;5005667;28;20022;-71
2022/09/18 00:17:43;;;;;;;2.90;1.23;;;;;;;10.75;74.03;97445.63;5009469;28;20081;-71
2022/09/18 00:20:09;;;;;;;1.98;1.38;;;;;;;10.72;74.08;97441.56;5000304;28;20023;-71
2022/09/18 00:22:34;;;;;;;3.17;1.25;;;;;;;10.69;73.51;97434.81;5004825;28;20018;-70
2022/09/18 00:25:00;;;;;;;4.20;1.58;;;;;;;10.67;73.84;97441.72;5000974;28;20022;-71
2022/09/18 00:27:25;;;;;;;3.45;1.52;;;;;;;10.63;73.82;97438.84;5001579;28;20030;-71
2022/09/18 00:29:50;;;;;;;5.88;1.60;;;;;;;10.60;72.88;97449.66;5005778;28;20026;-70
2022/09/18 00:32:16;;;;;;;3.58;1.30;;;;;;;10.60;73.53;97441.41;5007997;28;20108;-70
2022/09/18 00:34:41;;;;;;;3.85;1.50;;;;;;;10.59;73.96;97446.09;5008383;28;20034;-70
2022/09/18 00:37:06;;;;;;;4.95;1.55;;;;;;;10.58;73.70;97441.72;5009139;28;20195;-71
2022/09/18 00:39:32;;;;;;;4.70;1.42;;;;;;;10.54;73.89;97444.31;5009933;28;20458;-71
2022/09/18 00:41:57;;;;;;;3.00;1.30;;;;;;;10.53;72.85;97442.69;5009365;28;20041;-71
2022/09/18 00:44:31;;;;;;;2.45;1.10;;;;;;;10.49;73.56;97451.88;5023540;28;20044;-71
2022/09/18 00:47:21;;;;;;;3.53;1.30;;;;;;;10.46;73.52;97447.03;5030952;28;20038;-71
2022/09/18 00:49:52;;;;;;;4.47;1.50;;;;;;;10.46;73.11;97447.84;5007171;28;20033;-71
2022/09/18 00:52:20;;;;;;;3.53;1.40;;;;;;;10.46;72.74;97444.28;5028299;28;20021;-70
2022/09/18 00:54:54;;;;;;;5.03;1.60;;;;;;;10.45;74.02;97443.50;5029167;28;20033;-71
2022/09/18 00:57:26;;;;;;;4.00;1.10;;;;;;;10.45;73.59;97442.66;5030623;28;20030;-71
2022/09/18 00:59:53;;;;;;;4.25;1.52;;;;;;;10.38;73.54;97432.16;5025531;28;20033;-71
2022/09/18 01:02:19;;;;;;;1.73;1.20;;;;;;;10.36;73.95;97439.91;5028056;28;20018;-71
2022/09/18 01:04:45;;;;;;;3.28;1.50;;;;;;;10.33;73.77;97433.13;5009611;28;20068;-71
2022/09/18 01:07:19;;;;;;;2.38;1.20;;;;;;;10.30;73.54;97438.44;5010531;28;20099;-71
2022/09/18 01:09:57;;;;;;;3.97;1.75;;;;;;;10.25;73.18;97433.91;5019711;28;20025;-71
2022/09/18 01:12:36;;;;;;;3.33;1.20;;;;;;;10.22;73.49;97440.03;5030138;28;20250;-71
2022/09/18 01:15:38;;;;;;;3.25;1.20;;;;;;;10.13;72.89;97438.06;5030056;28;20041;-71
2022/09/18 01:18:34;;;;;;;4.75;1.30;;;;;;;10.10;73.21;97441.44;4996991;28;20045;-71
2022/09/18 01:21:06;;;;;;;3.05;1.15;;;;;;;10.06;73.43;97432.25;5028741;28;20116;-71
2022/09/18 01:23:53;;;;;;;3.53;1.35;;;;;;;10.01;73.89;97435.13;5012329;28;20033;-71
2022/09/18 01:26:39;;;;;;;4.90;1.92;;;;;;;9.95;73.20;97439.94;5027093;28;20454;-71
2022/09/18 01:29:29;;;;;;;4.30;1.60;;;;;;;9.91;73.11;97438.19;5009468;28;20045;-71
2022/09/18 01:32:38;;;;;;;3.58;1.20;;;;;;;9.85;72.84;97434.75;5009656;28;20037;-71
2022/09/18 01:35:38;;;;;;;5.00;1.40;;;;;;;9.79;72.96;97438.75;5022109;28;20073;-71
2022/09/18 01:38:16;;;;;;;3.00;1.30;;;;;;;9.72;72.92;97439.22;5026521;28;20073;-71
2022/09/18 01:40:44;;;;;;;4.13;1.38;;;;;;;9.71;73.45;97445.81;5022689;28;20064;-71
2022/09/18 01:43:15;;;;;;;4.82;1.58;;;;;;;9.67;73.25;97450.31;5004824;28;20033;-71
2022/09/18 01:45:45;;;;;;;3.45;1.40;;;;;;;9.60;73.33;97453.50;5019173;28;20037;-71
2022/09/18 01:48:24;;;;;;;3.90;1.45;;;;;;;9.57;73.29;97445.91;5027332;28;20028;-71
2022/09/18 01:50:55;;;;;;;6.03;1.50;;;;;;;9.55;73.46;97452.84;5010907;28;20054;-71
2022/09/18 01:53:30;;;;;;;4.55;1.40;;;;;;;9.51;73.40;97453.47;5010620;28;20037;-71
2022/09/18 01:56:10;;;;;;;4.00;1.55;;;;;;;9.51;73.23;97448.00;5009030;28;20046;-71
2022/09/18 01:58:36;;;;;;;2.40;1.20;;;;;;;9.49;72.77;97449.41;5009692;28;20022;-71
2022/09/18 02:01:07;;;;;;;3.58;1.48;;;;;;;9.49;73.41;97452.97;5018060;28;20037;-71
2022/09/18 02:03:40;;;;;;;3.40;1.20;;;;;;;9.49;73.16;97452.16;5029835;28;20100;-71
2022/09/18 02:06:20;;;;;;;6.80;2.25;;;;;;;9.44;73.24;97450.38;5025333;28;20025;-71
2022/09/18 02:08:52;;;;;;;3.58;1.70;;;;;;;9.41;72.92;97456.47;5019552;28;20042;-71
2022/09/18 02:11:20;;;;;;;4.72;1.30;;;;;;;9.38;73.13;97454.34;5010068;28;20030;-72
2022/09/18 02:13:54;;;;;;;4.13;1.67;;;;;;;9.34;72.75;97456.91;5010162;28;20030;-72
2022/09/18 02:16:29;;;;;;;5.32;1.60;;;;;;;9.26;72.87;97454.94;5010245;28;20029;-71
2022/09/18 02:18:59;;;;;;;3.13;1.60;;;;;;;9.22;72.97;97449.25;5007951;28;20088;-71
2022/09/18 02:21:29;;;;;;;4.80;1.42;;;;;;;9.22;73.59;97456.66;5009585;28;20496;-71
2022/09/18 02:24:02;;;;;;;4.43;1.85;;;;;;;9.19;72.70;97451.81;5009327;28;20425;-71
2022/09/18 02:26:28;;;;;;;4.18;1.50;;;;;;;9.19;73.31;97455.34;5010149;28;20073;-71
2022/09/18 02:28:56;;;;;;;3.60;1.45;;;;;;;9.17;73.33;97449.38;5028330;28;20039;-72
2022/09/18 02:31:21;;;;;;;4.07;1.60;;;;;;;9.16;73.15;97453.25;5030341;28;20132;-71
2022/09/18 02:33:48;;;;;;;4.05;1.75;;;;;;;9.14;73.24;97444.56;5029550;28;20112;-71
2022/09/18 02:36:43;;;;;;;6.93;2.20;;;;;;;9.12;72.90;97449.53;5028751;28;20060;-71
2022/09/18 02:39:08;;;;;;;7.00;1.90;;;;;;;9.12;72.94;97449.53;4964731;28;20462;-71
2022/09/18 02:41:36;;;;;;;5.28;1.55;;;;;;;9.11;73.58;97450.66;5008920;28;20057;-71
2022/09/18 02:44:11;;;;;;;2.22;1.48;;;;;;;9.06;73.05;97451.56;5009495;28;20495;-71
2022/09/18 02:46:56;;;;;;;3.03;1.40;;;;;;;9.04;73.04;97451.06;5028527;28;20021;-70
2022/09/18 02:49:42;;;;;;;4.15;1.70;;;;;;;9.03;72.79;97454.13;5018691;28;20457;-71
2022/09/18 02:52:32;;;;;;;3.95;1.65;;;;;;;9.01;73.03;97445.44;5009902;28;20033;-71
2022/09/18 02:55:20;;;;;;;4.28;1.50;;;;;;;8.99;72.58;97455.88;5012112;28;20501;-71
2022/09/18 02:57:51;;;;;;;3.83;1.17;;;;;;;9.00;72.66;97457.47;5013763;28;20026;-71
2022/09/18 03:00:17;;;;;;;3.15;1.40;;;;;;;8.99;72.60;97461.34;5013576;28;20083;-71
2022/09/18 03:02:44;;;;;;;3.60;1.80;;;;;;;8.96;72.74;97459.22;5013522;28;20036;-72
2022/09/18 03:05:13;;;;;;;3.55;1.38;;;;;;;8.94;72.46;97460.34;5013156;28;20489;-71
2022/09/18 03:07:38;;;;;;;5.07;1.80;;;;;;;8.93;71.95;97455.19;5012316;28;20044;-71
2022/09/18 03:10:04;;;;;;;3.85;1.48;;;;;;;8.91;72.72;97460.94;5013427;28;20037;-71
2022/09/18 03:12:30;;;;;;;3.95;1.90;;;;;;;8.90;72.45;97459.34;5013191;28;20029;-71
2022/09/18 03:14:55;;;;;;;4.57;1.92;;;;;;;8.88;72.70;97461.56;5013021;28;20076;-71
2022/09/18 03:17:20;;;;;;;3.78;1.50;;;;;;;8.86;72.46;97463.81;5012444;28;20029;-72
2022/09/18 03:19:46;;;;;;;4.22;1.80;;;;;;;8.84;72.87;97459.78;5011870;28;20026;-70
2022/09/18 03:22:12;;;;;;;6.35;1.70;;;;;;;8.86;72.76;97461.06;5017416;28;20040;-71
2022/09/18 03:24:38;;;;;;;4.78;1.60;;;;;;;8.86;72.74;97455.59;5015922;28;20033;-71
2022/09/18 03:27:04;;;;;;;3.40;1.60;;;;;;;8.84;73.01;97459.78;5011631;28;20030;-70
2022/09/18 03:29:29;;;;;;;4.75;1.50;;;;;;;8.80;72.48;97451.38;5011551;28;20394;-71
2022/09/18 03:31:55;;;;;;;5.20;1.90;;;;;;;8.78;72.85;97470.00;5019358;28;20033;-71
2022/09/18 03:34:20;;;;;;;3.67;1.88;;;;;;;8.75;72.35;97468.72;5023079;28;20438;-72
2022/09/18 03:36:46;;;;;;;5.88;2.40;;;;;;;8.75;72.61;97459.72;5012131;28;20022;-71
2022/09/18 03:39:12;;;;;;;5.65;2.25;;;;;;;8.70;72.50;97455.16;5023587;28;20035;-72
2022/09/18 03:41:38;;;;;;;3.92;2.25;;;;;;;8.67;72.34;97460.44;5033245;28;20033;-71
2022/09/18 03:44:03;;;;;;;7.03;2.65;;;;;;;8.62;72.48;97464.91;5032226;28;20029;-71
2022/09/18 03:46:29;;;;;;;6.30;2.40;;;;;;;8.61;72.58;97470.66;5032487;28;20156;-72
2022/09/18 03:48:54;;;;;;;6.60;2.30;;;;;;;8.58;72.11;97457.59;5032800;28;20030;-71
2022/09/18 03:51:19;;;;;;;7.50;2.60;;;;;;;8.53;72.49;97461.28;5019293;28;20033;-71
2022/09/18 03:53:46;;;;;;;5.32;2.25;;;;;;;8.47;72.57;97463.28;5012942;28;20029;-71
2022/09/18 03:56:13;;;;;;;6.38;2.10;;;;;;;8.43;72.61;97461.47;5012354;28;20543;-71
2022/09/18 03:58:39;;;;;;;17.45;3.08;;;;;;;8.42;72.44;97462.56;5012383;28;20079;-71
2022/09/18 04:01:05;;;;;;;4.70;2.20;;;;;;;8.40;72.38;97453.88;5011828;28;20030;-71
2022/09/18 04:03:31;;;;;;;5.47;2.33;;;;;;;8.40;72.29;97464.81;5012548;28;20018;-71
2022/09/18 04:05:57;;;;;;;4.88;2.70;;;;;;;8.38;72.29;97456.94;5011436;28;20054;-71
2022/09/18 04:08:23;;;;;;;3.95;2.50;;;;;;;8.35;72.52;97454.81;5009741;28;20567;-71
2022/09/18 04:10:48;;;;;;;4.45;2.38;;;;;;;8.37;72.21;97449.03;5032350;28;20105;-71
2022/09/18 04:13:14;;;;;;;5.13;2.47;;;;;;;8.35;72.64;97452.06;5012972;28;20030;-71
2022/09/18 04:15:40;;;;;;;5.43;2.50;;;;;;;8.30;72.54;97458.47;5010843;28;20033;-72
2022/09/18 04:18:05;;;;;;;3.30;2.33;;;;;;;8.27;72.78;97461.00;5012138;28;20034;-71
2022/09/18 04:20:31;;;;;;;6.25;2.67;;;;;;;8.23;72.37;97463.53;5016577;28;20026;-72
2022/09/18 04:22:58;;;;;;;4.78;2.53;;;;;;;8.20;73.00;97459.47;5017698;28;20030;-70
2022/09/18 04:25:23;;;;;;;4.07;2.55;;;;;;;8.20;72.39;97456.75;5011890;28;20018;-70
2022/09/18 04:27:49;;;;;;;4.43;2.70;;;;;;;8.21;72.73;97465.75;5020188;28;20075;-70
2022/09/18 04:30:14;;;;;;;4.30;2.20;;;;;;;8.21;72.85;97463.03;5030976;28;20061;-70
2022/09/18 04:32:44;;;;;;;8.00;2.90;;;;;;;8.21;72.81;97460.28;5029407;28;20486;-70
2022/09/18 04:35:11;;;;;;;5.03;2.47;;;;;;;8.22;72.98;97458.34;5011358;28;20038;-69
2022/09/18 04:37:36;;;;;;;5.97;2.88;;;;;;;8.21;72.45;97465.75;5010229;28;20034;-70
2022/09/18 04:40:03;;;;;;;5.97;2.45;;;;;;;8.22;72.76;97467.38;5011552;28;20413;-71
2022/09/18 04:42:29;;;;;;;6.57;2.50;;;;;;;8.24;73.16;97472.53;5011198;28;20038;-70
2022/09/18 04:44:55;;;;;;;6.32;2.58;;;;;;;8.24;72.88;97464.31;5019705;28;20036;-70
2022/09/18 04:47:20;;;;;;;6.68;2.80;;;;;;;8.28;72.94;97473.53;5015817;28;20026;-70
2022/09/18 04:49:45;;;;;;;6.25;2.92;;;;;;;8.30;72.71;97474.84;5021095;28;20385;-71
2022/09/18 04:52:11;;;;;;;4.43;2.70;;;;;;;8.35;73.32;97466.53;5014117;28;20120;-70
2022/09/18 04:54:37;;;;;;;7.32;2.85;;;;;;;8.39;73.09;97466.75;5011237;28;20026;-70
2022/09/18 04:57:02;;;;;;;4.53;3.30;;;;;;;8.41;73.04;97469.97;5011287;28;20049;-70
2022/09/18 04:59:27;;;;;;;5.85;4.53;;;;;;;8.43;72.98;97469.66;5010631;28;20037;-70
2022/09/18 05:01:53;;;;;;;9.93;5.13;;;;;;;8.45;73.09;97467.44;5011668;28;20034;-70
2022/09/18 05:04:18;;;;;;;7.10;5.03;;;;;;;8.46;73.30;97467.16;5008712;28;20030;-71
2022/09/18 05:06:44;;;;;;;6.82;4.00;;;;;;;8.45;73.52;97464.69;5010783;28;20088;-70
2022/09/18 05:09:09;;;;;;;6.13;3.50;;;;;;;8.42;73.03;97474.34;5021103;28;20037;-70
2022/09/18 05:11:34;;;;;;;5.63;3.13;;;;;;;8.44;72.94;97469.38;5017289;28;20034;-70
2022/09/18 05:14:00;;;;;;;7.00;3.28;;;;;;;8.47;73.08;97471.50;5011478;28;20108;-70
2022/09/18 05:16:25;;;;;;;6.05;2.95;;;;;;;8.45;73.37;97464.69;5009990;28;20514;-70
2022/09/18 05:18:51;;;;;;;5.35;3.17;;;;;;;8.50;73.14;97467.34;5030761;28;20229;-70
2022/09/18 05:21:17;;;;;;;6.22;3.15;;;;;;;8.55;73.40;97464.50;5014924;28;20030;-71
2022/09/18 05:23:44;;;;;;;4.78;3.10;;;;;;;8.62;73.34;97464.09;5011090;28;20494;-70
2022/09/18 05:26:10;;;;;;;4.47;3.13;;;;;;;8.64;72.93;97459.13;5010747;28;20112;-71
2022/09/18 05:28:36;;;;;;;5.82;3.20;;;;;;;8.68;72.98;97462.84;5010927;28;20501;-70
2022/09/18 05:31:02;;;;;;;5.57;3.70;;;;;;;8.70;72.81;97459.81;5008906;28;20029;-70
2022/09/18 05:33:27;;;;;;;4.18;2.80;;;;;;;8.73;72.78;97459.22;5013028;28;21866;-71
2022/09/18 05:35:55;;;;;;;4.75;2.90;;;;;;;8.77;73.13;97465.66;5010680;28;20105;-70
2022/09/18 05:38:20;;;;;;;4.97;2.80;;;;;;;8.80;73.67;97459.56;5010211;28;20029;-70
2022/09/18 05:40:47;;;;;;;4.50;3.00;;;;;;;8.85;73.37;97472.34;5010781;28;20025;-70
2022/09/18 05:43:13;;;;;;;4.18;2.80;;;;;;;8.89;73.22;97459.66;5010631;28;20592;-70
2022/09/18 05:45:39;;;;;;;4.53;3.00;;;;;;;8.91;72.96;97460.94;5010694;28;20030;-70
2022/09/18 05:48:05;;;;;;;5.35;2.95;;;;;;;8.97;73.16;97463.56;5017933;28;20510;-70
2022/09/18 05:50:32;;;;;;;5.72;3.03;;;;;;;8.99;73.41;97458.59;5010790;28;20080;-71
2022/09/18 05:52:57;;;;;;;5.88;2.88;;;;;;;9.07;73.62;97455.13;5015819;28;20030;-70
2022/09/18 05:55:23;;;;;;;3.67;2.70;;;;;;;9.09;72.93;97461.88;5010776;28;20033;-70
2022/09/18 05:57:53;;;;;;;5.70;2.95;;;;;;;9.08;73.65;97452.06;5009720;28;20071;-71
2022/09/18 06:00:19;;;;;;;5.45;3.13;;;;;;;9.09;73.41;97452.88;5011922;28;20382;-70
2022/09/18 06:03:00;;;;;;;4.47;3.50;;;;;;;9.10;73.88;97446.31;5010751;28;20022;-70
2022/09/18 06:05:28;;;;;;;4.80;3.10;;;;;;;9.15;73.41;97454.38;5010368;28;20040;-70
2022/09/18 06:07:53;;;;;;;6.50;2.78;;;;;;;9.21;72.92;97458.59;5028524;28;21398;-70
2022/09/18 06:10:21;;;;;;;4.38;2.97;;;;;;;9.29;73.85;97448.00;5010457;28;20022;-70
2022/09/18 06:12:47;;;;;;;5.00;2.95;;;;;;;9.36;74.02;97451.13;5008985;28;20032;-70
2022/09/18 06:15:13;;;;;;;4.68;2.78;;;;;;;9.42;73.41;97449.88;5018256;28;20108;-70
2022/09/18 06:17:41;;;;;;;5.97;2.80;;;;;;;9.46;73.17;97455.50;5022944;28;20034;-70
2022/09/18 06:20:08;;;;;;;6.72;2.80;;;;;;;9.50;73.75;97456.50;5009297;28;20022;-70
2022/09/18 06:22:35;;;;;;;4.07;2.40;;;;;;;9.57;73.69;97450.59;5009998;28;20037;-70
2022/09/18 06:25:00;;;;;;;3.05;2.63;;;;;;;9.66;74.06;97448.69;5013519;28;20033;-70
2022/09/18 06:27:26;;;;;;;4.50;2.50;;;;;;;9.72;73.56;97458.38;5024942;28;20129;-70
2022/09/18 06:29:52;;;;;;;2.70;1.92;;;;;;;9.79;74.04;97466.13;5014338;28;20133;-70
2022/09/18 06:32:19;;;;;;;3.28;2.13;;;;;;;9.86;73.07;97463.75;5014153;28;20034;-70
2022/09/18 06:34:45;;;;;;;4.10;1.95;;;;;;;9.93;73.40;97464.09;5018246;28;20033;-70
2022/09/18 06:37:11;;;;;;;3.30;2.30;;;;;;;9.97;73.73;97465.09;5021266;28;20044;-71
2022/09/18 06:39:37;;;;;;;3.80;2.20;;;;;;;10.02;73.60;97464.13;5014348;28;20433;-70
2022/09/18 06:42:03;;;;;;;4.55;2.45;;;;;;;10.10;73.44;97462.56;5025878;28;20049;-70
2022/09/18 06:44:28;;;;;;;3.08;2.05;;;;;;;10.14;73.79;97469.03;5017390;28;20028;-70
2022/09/18 06:46:54;;;;;;;4.88;2.40;;;;;;;10.20;73.29;97466.94;5018849;28;20021;-70
2022/09/18 06:49:19;;;;;;;3.22;2.00;;;;;;;10.29;73.83;97465.03;5011798;28;20426;-70
2022/09/18 06:51:47;;;;;;;4.07;2.28;;;;;;;10.35;72.92;97468.44;5027772;28;20088;-70
2022/09/18 06:54:13;;;;;;;5.35;2.25;;;;;;;10.40;73.42;97469.09;5011474;28;20048;-70
2022/09/18 06:56:39;;;;;;;3.15;2.08;;;;;;;10.47;73.57;97465.09;5014939;28;20393;-70
2022/09/18 06:59:04;;;;;;;3.55;1.85;;;;;;;10.53;73.64;97463.81;5013510;28;20044;-70
2022/09/18 07:01:30;;;;;;;2.50;1.83;;;;;;;10.57;73.28;97470.28;5012802;28;20456;-71
2022/09/18 07:03:57;;;;;;;2.85;1.98;;;;;;;10.59;73.90;97472.72;5013243;28;20032;-71
2022/09/18 07:06:22;;;;;;;2.83;1.67;;;;;;;10.64;73.16;97467.88;5013758;28;20037;-70
2022/09/18 07:08:48;;;;;;;4.65;2.00;;;;;;;10.65;72.83;97471.41;5014802;28;20117;-69
2022/09/18 07:11:13;;;;;;;3.40;1.67;;;;;;;10.70;72.87;97479.47;5027980;28;20060;-70
2022/09/18 07:13:40;;;;;;;3.03;1.80;;;;;;;10.73;73.63;97478.84;5012091;28;20049;-70
2022/09/18 07:16:06;;;;;;;3.80;1.77;;;;;;;10.79;73.01;97482.25;5027512;28;20052;-70
2022/09/18 07:18:32;;;;;;;3.60;1.80;;;;;;;10.85;72.73;97487.25;5017375;28;20091;-69
2022/09/18 07:20:58;;;;;;;4.25;1.80;;;;;;;10.91;72.89;97487.88;5014549;28;20040;-69
2022/09/18 07:23:23;;;;;;;3.58;1.95;;;;;;;10.97;73.48;97488.53;5014017;28;20030;-70
2022/09/18 07:25:49;;;;;;;3.33;1.75;;;;;;;10.97;73.12;97499.50;5011626;28;20065;-70
2022/09/18 07:28:14;;;;;;;4.10;1.75;;;;;;;10.96;73.21;97484.97;5012492;28;20478;-70
2022/09/18 07:30:40;;;;;;;4.95;1.90;;;;;;;10.95;72.62;97483.38;5012096;28;20433;-70
2022/09/18 07:33:07;;;;;;;5.55;2.60;;;;;;;10.94;73.12;97487.25;5018733;28;20064;-70
2022/09/18 07:35:33;;;;;;;5.32;2.47;;;;;;;10.96;73.23;97493.22;5012062;28;20486;-71
2022/09/18 07:38:01;;;;;;;6.35;3.92;;;;;;;11.04;73.45;97488.06;5016003;28;20050;-71
2022/09/18 07:40:28;;;;;;;6.70;4.60;;;;;;;11.13;73.60;97494.34;5010502;28;20030;-70
2022/09/18 07:43:02;;;;;;;5.32;2.85;;;;;;;11.20;73.55;97491.94;5009882;28;20034;-70
2022/09/18 07:45:28;;;;;;;6.05;2.20;;;;;;;11.26;73.17;97493.34;5005330;28;20038;-70
2022/09/18 07:47:53;;;;;;;5.78;2.55;;;;;;;11.34;73.48;97499.16;5004932;28;20037;-70
2022/09/18 07:50:19;;;;;;;2.60;1.70;;;;;;;11.40;72.71;97493.19;5006016;28;20060;-71
2022/09/18 07:52:53;;;;;;;4.10;1.77;;;;;;;11.46;73.10;97491.06;5006245;28;20083;-71
2022/09/18 07:55:20;;;;;;;3.22;1.60;;;;;;;11.53;73.39;97494.13;5004773;28;20022;-71
2022/09/18 07:57:47;;;;;;;3.22;1.73;;;;;;;11.59;73.15;97481.84;5015624;28;20064;-71
2022/09/18 08:00:14;;;;;;;5.22;1.55;;;;;;;11.66;72.73;97481.34;5015849;28;20115;-72
2022/09/18 08:02:40;;;;;;;4.32;2.13;;;;;;;11.70;72.50;97489.72;5013824;28;20065;-72
2022/09/18 08:05:06;;;;;;;3.08;1.52;;;;;;;11.65;72.04;97490.72;5014829;28;20030;-72
2022/09/18 08:07:32;;;;;;;4.60;2.28;;;;;;;11.62;72.38;97492.16;5027830;28;20042;-71
2022/09/18 08:09:57;;;;;;;3.33;1.60;;;;;;;11.67;72.45;97488.44;5013167;28;20136;-70
2022/09/18 08:12:23;;;;;;;3.13;1.60;;;;;;;11.70;72.39;97496.03;5032483;28;20030;-70
2022/09/18 08:14:50;;;;;;;1.90;1.23;;;;;;;11.78;72.28;97491.63;5007358;28;20037;-70
2022/09/18 08:17:16;;;;;;;2.13;1.20;;;;;;;11.87;72.07;97491.59;5013485;28;20029;-70
2022/09/18 08:19:42;;;;;;;1.73;1.20;;;;;;;11.88;71.33;97491.28;5018490;28;20370;-71
2022/09/18 08:22:09;;;;;;;2.97;1.02;;;;;;;11.84;71.07;97501.31;5010858;28;20026;-71
2022/09/18 08:24:35;;;;;;;3.95;1.80;;;;;;;11.84;71.48;97506.00;5011107;28;20018;-70
2022/09/18 08:27:04;;;;;;;3.50;1.45;;;;;;;11.87;71.14;97497.91;5008255;28;20022;-69
2022/09/18 08:29:31;;;;;;;2.20;1.08;;;;;;;11.93;71.04;97495.00;5022153;28;20051;-69
2022/09/18 08:31:58;;;;;;;4.00;1.88;;;;;;;11.98;71.15;97492.84;5012997;28;20033;-71
2022/09/18 08:34:25;;;;;;;2.40;1.50;;;;;;;12.02;71.23;97493.06;5015429;28;20060;-71
2022/09/18 08:36:52;;;;;;;2.70;1.65;;;;;;;12.06;70.62;97496.72;5013762;28;20547;-70
2022/09/18 08:39:17;;;;;;;2.05;1.27;;;;;;;12.04;70.47;97496.25;5011750;28;20621;-72
2022/09/18 08:42:05;;;;;;;1.52;1.20;;;;;;;12.02;70.05;97493.84;5030530;28;20104;-71
2022/09/18 08:44:42;;;;;;;2.20;1.30;;;;;;;12.00;70.77;97496.13;5024952;28;20030;-71
2022/09/18 08:47:26;;;;;;;2.22;1.20;;;;;;;12.04;70.70;97494.31;5006705;28;20099;-71
2022/09/18 08:49:59;;;;;;;2.28;0.80;;;;;;;12.14;70.46;97482.16;5009978;28;20529;-71
2022/09/18 08:52:30;;;;;;;3.92;2.47;;;;;;;12.22;70.57;97494.25;5006189;28;20101;-71
2022/09/18 08:54:59;;;;;;;2.75;1.38;;;;;;;12.25;70.24;97479.81;5010069;28;20053;-71
2022/09/18 08:57:47;;;;;;;1.75;0.88;;;;;;;12.21;70.25;97482.44;5006357;28;20048;-72
2022/09/18 09:00:20;;;;;;;1.95;1.10;;;;;;;12.26;70.12;97480.66;5006191;28;20025;-73
2022/09/18 09:03:02;;;;;;;2.28;1.65;;;;;;;12.25;69.73;97479.81;5007358;28;20041;-74
2022/09/18 09:05:44;;;;;;;1.35;0.90;;;;;;;12.27;69.88;97479.50;5006709;28;20014;-74
2022/09/18 09:08:23;;;;;;;2.33;1.10;;;;;;;12.27;69.36;97482.25;5000996;28;20522;-73
2022/09/18 09:10:57;;;;;;;2.03;1.27;;;;;;;12.28;69.58;97486.63;5005324;28;20402;-74
2022/09/18 09:13:44;;;;;;;2.22;1.42;;;;;;;12.32;69.82;97484.81;5009138;28;20030;-73
2022/09/18 09:16:22;;;;;;;1.92;1.23;;;;;;;12.34;69.05;97493.53;5006384;28;20124;-73
2022/09/18 09:18:51;;;;;;;1.38;0.93;;;;;;;12.37;68.59;97492.88;5006673;28;20073;-74
2022/09/18 09:21:23;;;;;;;1.13;1.08;;;;;;;12.35;69.18;97487.69;5008953;28;20018;-73
2022/09/18 09:24:12;;;;;;;2.05;1.83;;;;;;;12.37;69.13;97490.13;5005959;28;20784;-73
2022/09/18 09:26:39;;;;;;;1.30;0.90;;;;;;;12.41;69.43;97490.25;5007809;28;20505;-74
2022/09/18 09:29:13;;;;;;;1.13;0.75;;;;;;;12.48;69.09;97494.09;5006941;28;20054;-73
2022/09/18 09:31:54;;;;;;;1.10;0.82;;;;;;;12.52;68.56;97491.50;5004479;28;20025;-71
2022/09/18 09:34:41;;;;;;;2.65;1.55;;;;;;;12.48;68.58;97487.81;5008248;28;20033;-70
2022/09/18 09:37:18;;;;;;;11.13;4.80;;;;;;;12.45;68.33;97491.22;5009049;28;20026;-71
2022/09/18 09:39:58;;;;;;;3.33;2.13;;;;;;;12.34;67.61;97493.53;5006869;28;20029;-71
2022/09/18 09:42:28;;;;;;;1.85;1.50;;;;;;;12.30;67.51;97489.84;5005078;28;20412;-71
2022/09/18 09:45:13;;;;;;;2.30;1.50;;;;;;;12.23;66.61;97493.09;5005903;28;20037;-71
2022/09/18 09:47:54;;;;;;;1.50;0.90;;;;;;;12.20;66.69;97494.56;5005663;28;20102;-71
2022/09/18 09:50:48;;;;;;;4.22;1.90;;;;;;;12.31;66.35;97499.72;5002620;28;20034;-70
2022/09/18 09:53:14;;;;;;;3.70;1.70;;;;;;;12.42;66.77;97492.69;5006026;28;20075;-71
2022/09/18 09:55:57;;;;;;;4.85;2.50;;;;;;;12.50;66.26;97500.06;5008866;28;20091;-71
2022/09/18 09:58:43;;;;;;;5.45;2.30;;;;;;;12.55;65.99;97512.03;5005277;28;20060;-71
2022/09/18 10:01:25;;;;;;;2.60;1.38;;;;;;;12.51;66.32;97514.66;5009054;28;20025;-71
2022/09/18 10:04:03;;;;;;;6.85;3.25;;;;;;;12.51;65.90;97514.66;5000412;28;20033;-72
2022/09/18 10:06:32;;;;;;;13.73;5.10;;;;;;;12.43;66.13;97513.53;5000112;28;20030;-71
2022/09/18 10:09:18;;;;;;;4.78;2.97;;;;;;;12.44;66.06;97517.91;5001136;28;20046;-72
2022/09/18 10:11:56;;;;;;;2.65;1.60;;;;;;;12.55;66.40;97523.03;5000786;28;20038;-72
2022/09/18 10:14:27;;;;;;;14.65;4.85;;;;;;;12.68;66.23;97518.41;5003715;28;20184;-71
2022/09/18 10:16:56;;;;;;;7.07;3.20;;;;;;;12.77;66.18;97513.66;5000793;28;20069;-71
2022/09/18 10:19:28;;;;;;;8.90;3.65;;;;;;;12.84;65.99;97524.16;5020601;28;20079;-71
2022/09/18 10:21:55;;;;;;;5.28;2.60;;;;;;;12.88;65.97;97530.59;5012091;28;20060;-70
2022/09/18 10:24:25;;;;;;;3.95;2.67;;;;;;;12.88;65.83;97530.59;5006670;28;20058;-72
2022/09/18 10:27:08;;;;;;;1.30;1.00;;;;;;;12.86;65.69;97522.66;5004212;28;20030;-72
2022/09/18 10:29:34;;;;;;;1.88;1.45;;;;;;;12.79;65.05;97531.47;5007577;28;20103;-72
2022/09/18 10:32:01;;;;;;;2.60;1.58;;;;;;;12.74;64.23;97531.66;5027933;28;20034;-72
2022/09/18 10:34:33;;;;;;;2.47;1.20;;;;;;;12.68;65.03;97534.91;5028379;28;20021;-72
2022/09/18 10:37:00;;;;;;;1.88;0.90;;;;;;;12.68;65.28;97541.25;5004841;28;20038;-71
2022/09/18 10:39:30;;;;;;;2.00;1.33;;;;;;;12.68;64.54;97546.75;5024917;28;20032;-72
2022/09/18 10:42:05;;;;;;;1.02;0.90;;;;;;;12.64;64.89;97543.03;5002698;28;20046;-71
2022/09/18 10:44:36;;;;;;;4.75;1.98;;;;;;;12.58;63.79;97541.63;5007015;28;20018;-72
2022/09/18 10:47:17;;;;;;;2.20;0.95;;;;;;;12.51;64.36;97544.91;5007629;28;20022;-73
2022/09/18 10:50:05;;;;;;;2.05;1.33;;;;;;;12.53;64.50;97542.63;5007869;28;20033;-72
2022/09/18 10:52:36;;;;;;;3.13;1.10;;;;;;;12.50;64.22;97549.56;5006976;28;20025;-72
2022/09/18 10:55:06;;;;;;;1.13;0.75;;;;;;;12.43;64.17;97545.75;5013622;28;20081;-72
2022/09/18 10:57:38;;;;;;;1.65;1.02;;;;;;;12.38;63.27;97563.25;5003761;28;20034;-73
2022/09/18 11:00:24;;;;;;;1.90;0.50;;;;;;;12.29;63.81;97563.25;5003562;28;20056;-73
2022/09/18 11:02:59;;;;;;;1.45;0.47;;;;;;;12.29;63.67;97566.00;5007312;28;20025;-73
2022/09/18 11:05:36;;;;;;;2.65;0.65;;;;;;;12.24;63.71;97565.38;5006928;28;20026;-71
2022/09/18 11:08:13;;;;;;;1.92;0.60;;;;;;;12.19;63.10;97563.63;5003388;28;20122;-73
2022/09/18 11:10:49;;;;;;;1.88;0.70;;;;;;;12.14;63.43;97566.56;5003490;28;20022;-72
2022/09/18 11:13:49;;;;;;;2.35;0.55;;;;;;;12.08;63.21;97565.91;5003454;28;20064;-72
2022/09/18 11:16:29;;;;;;;2.13;1.00;;;;;;;12.12;64.03;97566.09;5006792;28;20557;-73
2022/09/18 11:19:10;;;;;;;;;;;;;;;12.27;64.36;97565.53;5009324;28;20030;-72
2022/09/18 11:21:47;;;;;;;0.65;0.40;;;;;;;12.41;64.43;97584.59;5008247;28;20020;-72
2022/09/18 11:24:22;;;;;;;1.60;0.70;;;;;;;12.49;64.04;97585.66;5007279;28;20028;-72
2022/09/18 11:26:52;;;;;;;5.95;2.17;;;;;;;12.44;63.12;97578.38;5007698;28;20728;-73
2022/09/18 11:29:38;;;;;;;1.25;0.80;;;;;;;12.39;63.05;97575.03;5007908;28;20030;-73
2022/09/18 11:32:36;;;;;;;0.52;0.40;;;;;;;12.35;63.22;97583.16;5009400;28;20033;-73
2022/09/18 11:35:04;;;;;;;1.42;0.50;;;;;;;12.23;63.21;97603.06;4974440;28;20042;-73
2022/09/18 11:37:39;;;;;;;4.03;1.48;;;;;;;12.14;63.44;97591.31;5011920;28;20112;-73
2022/09/18 11:40:24;;;;;;;2.10;1.10;;;;;;;12.12;63.59;97599.06;5005384;28;20038;-73
2022/09/18 11:42:53;;;;;;;1.35;0.80;;;;;;;12.02;64.00;97605.72;5006506;28;20482;-73
2022/09/18 11:45:28;;;;;;;4.55;1.27;;;;;;;11.90;64.34;97611.84;5007065;28;20117;-73
2022/09/18 11:48:03;;;;;;;2.38;0.80;;;;;;;11.72;64.37;97609.13;5008894;28;20068;-73
2022/09/18 11:50:35;;;;;;;1.52;0.85;;;;;;;11.65;64.98;97611.56;5007001;28;21046;-72
2022/09/18 11:53:09;;;;;;;1.63;0.80;;;;;;;11.55;65.56;97607.22;5008829;28;20022;-70